Time;durP1;ratioP1;P1;durP2;ratioP2;P2;SDS_P1;SDS_P2;PMS_P1;PMS_P2;Temp;Humidity;BMP_temperature;BMP_pressure;BME280_temperature;BME280_humidity;BME280_pressure;Samples;Min_cycle;Max_cycle;Signal;HPM_P1;HPM_P2
2021/11/25 00:00:03;;;;;;;16.41;9.20;;;;;;;;;;349454;151;865090;-53
2021/11/25 00:01:05;;;;;;;17.42;9.79;;;;;;;;;;355411;148;857423;-53
2021/11/25 00:02:06;;;;;;;16.54;8.33;;;;;;;;;;348206;152;859798;-54
2021/11/25 00:03:08;;;;;;;14.97;9.63;;;;;;;;;;354846;149;865045;-54
2021/11/25 00:04:10;;;;;;;15.94;8.82;;;;;;;;;;352357;150;865050;-53
2021/11/25 00:05:11;;;;;;;14.96;8.41;;;;;;;;;;354225;150;865002;-53
2021/11/25 00:06:13;;;;;;;16.71;8.36;;;;;;;;;;351739;150;865014;-53
2021/11/25 00:07:14;;;;;;;15.10;7.37;;;;;;;;;;356241;148;864935;-53
2021/11/25 00:08:17;;;;;;;15.34;8.89;;;;;;;;;;353098;148;860614;-53
2021/11/25 00:09:19;;;;;;;16.13;8.98;;;;;;;;;;352257;151;857312;-56
2021/11/25 00:10:20;;;;;;;17.61;9.05;;;;;;;;;;347652;152;857379;-55
2021/11/25 00:11:24;;;;;;;18.27;8.63;;;;;;;;;;354056;149;867020;-56
2021/11/25 00:12:25;;;;;;;22.01;8.38;;;;;;;;;;352436;151;858970;-56
2021/11/25 00:13:27;;;;;;;16.81;8.13;;;;;;;;;;351709;151;857856;-56
2021/11/25 00:14:28;;;;;;;17.72;9.46;;;;;;;;;;351562;151;862707;-53
2021/11/25 00:15:30;;;;;;;14.79;8.04;;;;;;;;;;353633;149;857499;-54
2021/11/25 00:16:32;;;;;;;16.41;9.58;;;;;;;;;;354291;151;865590;-54
2021/11/25 00:17:33;;;;;;;17.35;10.02;;;;;;;;;;352262;149;857343;-54
2021/11/25 00:18:36;;;;;;;17.14;8.91;;;;;;;;;;352029;149;857508;-54
2021/11/25 00:19:37;;;;;;;16.35;9.00;;;;;;;;;;355770;151;857780;-53
2021/11/25 00:20:39;;;;;;;14.14;8.34;;;;;;;;;;354202;149;858264;-54
2021/11/25 00:21:42;;;;;;;13.93;8.57;;;;;;;;;;351125;151;862244;-54
2021/11/25 00:22:43;;;;;;;18.30;9.43;;;;;;;;;;352700;150;859560;-53
2021/11/25 00:23:45;;;;;;;11.61;7.24;;;;;;;;;;354472;148;859444;-54
2021/11/25 00:24:47;;;;;;;15.46;9.01;;;;;;;;;;352151;148;857817;-54
2021/11/25 00:25:48;;;;;;;13.59;7.62;;;;;;;;;;352237;148;864927;-54
2021/11/25 00:26:50;;;;;;;12.54;7.71;;;;;;;;;;356253;148;865038;-53
2021/11/25 00:27:51;;;;;;;11.59;6.40;;;;;;;;;;354730;148;857410;-54
2021/11/25 00:28:53;;;;;;;12.75;7.23;;;;;;;;;;353241;148;859255;-54
2021/11/25 00:29:54;;;;;;;15.26;8.83;;;;;;;;;;359789;148;857777;-54
2021/11/25 00:30:56;;;;;;;11.14;7.23;;;;;;;;;;350420;149;859044;-54
2021/11/25 00:31:58;;;;;;;15.76;8.49;;;;;;;;;;352284;148;857566;-54
2021/11/25 00:32:59;;;;;;;15.58;9.29;;;;;;;;;;353208;148;864980;-54
2021/11/25 00:34:01;;;;;;;11.94;7.38;;;;;;;;;;355490;148;865046;-54
2021/11/25 00:35:03;;;;;;;15.32;8.14;;;;;;;;;;354937;151;857342;-54
2021/11/25 00:36:04;;;;;;;15.39;8.56;;;;;;;;;;352442;148;866659;-54
2021/11/25 00:37:06;;;;;;;14.34;7.16;;;;;;;;;;356215;148;858219;-54
2021/11/25 00:38:08;;;;;;;13.37;8.49;;;;;;;;;;352636;148;865190;-54
2021/11/25 00:39:10;;;;;;;13.81;8.23;;;;;;;;;;351586;148;865282;-54
2021/11/25 00:40:13;;;;;;;12.17;7.70;;;;;;;;;;352787;148;865238;-53
2021/11/25 00:41:15;;;;;;;12.58;7.43;;;;;;;;;;350179;151;858896;-54
2021/11/25 00:42:17;;;;;;;14.16;8.50;;;;;;;;;;354918;148;866711;-54
2021/11/25 00:43:18;;;;;;;13.12;8.61;;;;;;;;;;354534;148;865702;-54
2021/11/25 00:44:20;;;;;;;14.91;8.96;;;;;;;;;;355400;148;859188;-54
2021/11/25 00:45:21;;;;;;;12.84;7.01;;;;;;;;;;353142;148;857368;-54
2021/11/25 00:46:23;;;;;;;11.11;7.13;;;;;;;;;;355318;148;857721;-54
2021/11/25 00:47:24;;;;;;;16.02;7.81;;;;;;;;;;354104;148;865686;-53
2021/11/25 00:48:26;;;;;;;14.01;7.48;;;;;;;;;;350586;148;858554;-54
2021/11/25 00:49:28;;;;;;;13.22;7.94;;;;;;;;;;353203;148;859934;-54
2021/11/25 00:50:29;;;;;;;14.98;8.41;;;;;;;;;;353263;148;859486;-54
2021/11/25 00:51:31;;;;;;;17.93;9.17;;;;;;;;;;355912;148;860561;-54
2021/11/25 00:52:32;;;;;;;13.46;8.48;;;;;;;;;;350903;152;865137;-54
2021/11/25 00:53:34;;;;;;;14.29;9.07;;;;;;;;;;347412;151;857807;-54
2021/11/25 00:54:35;;;;;;;11.95;7.96;;;;;;;;;;349067;150;865113;-54
2021/11/25 00:55:38;;;;;;;14.54;8.16;;;;;;;;;;350048;151;858478;-54
2021/11/25 00:56:40;;;;;;;11.18;6.76;;;;;;;;;;352513;150;857503;-54
2021/11/25 00:57:42;;;;;;;14.79;8.39;;;;;;;;;;354485;148;857184;-54
2021/11/25 00:58:43;;;;;;;14.04;8.39;;;;;;;;;;356083;148;857355;-54
2021/11/25 00:59:45;;;;;;;15.28;9.74;;;;;;;;;;356237;148;860744;-54
2021/11/25 01:00:47;;;;;;;13.59;7.71;;;;;;;;;;356901;148;864983;-53
2021/11/25 01:01:49;;;;;;;14.13;9.54;;;;;;;;;;356261;148;859024;-54
2021/11/25 01:02:50;;;;;;;14.73;8.93;;;;;;;;;;354847;150;859033;-53
2021/11/25 01:03:52;;;;;;;12.69;7.18;;;;;;;;;;354505;148;864112;-54
2021/11/25 01:04:53;;;;;;;11.55;6.97;;;;;;;;;;356962;149;866169;-53
2021/11/25 01:05:55;;;;;;;13.44;8.51;;;;;;;;;;355479;151;858834;-54
2021/11/25 01:06:57;;;;;;;15.61;8.59;;;;;;;;;;351696;148;858894;-53
2021/11/25 01:07:59;;;;;;;13.99;7.80;;;;;;;;;;352897;148;858804;-54
2021/11/25 01:09:00;;;;;;;15.96;8.47;;;;;;;;;;354825;151;865601;-53
2021/11/25 01:10:03;;;;;;;14.54;9.27;;;;;;;;;;353617;149;865802;-54
2021/11/25 01:11:05;;;;;;;12.53;8.60;;;;;;;;;;352283;148;858986;-54
2021/11/25 01:12:07;;;;;;;16.94;9.52;;;;;;;;;;354137;148;859125;-54
2021/11/25 01:13:08;;;;;;;15.44;9.35;;;;;;;;;;354010;148;865585;-54
2021/11/25 01:14:10;;;;;;;16.24;9.74;;;;;;;;;;350646;148;857339;-54
2021/11/25 01:15:12;;;;;;;15.86;9.32;;;;;;;;;;355588;148;857314;-54
2021/11/25 01:16:13;;;;;;;18.03;9.67;;;;;;;;;;355805;148;864932;-54
2021/11/25 01:17:15;;;;;;;14.88;9.41;;;;;;;;;;350956;149;857312;-54
2021/11/25 01:18:17;;;;;;;12.91;8.37;;;;;;;;;;353908;148;865007;-54
2021/11/25 01:19:19;;;;;;;18.06;10.27;;;;;;;;;;354003;148;857186;-54
2021/11/25 01:20:21;;;;;;;13.82;8.19;;;;;;;;;;355278;148;857245;-54
2021/11/25 01:21:22;;;;;;;20.95;8.55;;;;;;;;;;352834;148;857366;-54
2021/11/25 01:22:24;;;;;;;18.71;9.20;;;;;;;;;;356566;149;864886;-54
2021/11/25 01:23:27;;;;;;;14.46;9.07;;;;;;;;;;357709;147;857655;-54
2021/11/25 01:24:28;;;;;;;15.86;9.45;;;;;;;;;;351300;150;857373;-54
2021/11/25 01:25:30;;;;;;;17.44;10.11;;;;;;;;;;351287;151;857332;-54
2021/11/25 01:26:31;;;;;;;15.02;9.29;;;;;;;;;;358413;150;859557;-54
2021/11/25 01:27:33;;;;;;;13.51;9.17;;;;;;;;;;357943;149;866312;-54
2021/11/25 01:28:34;;;;;;;15.87;8.74;;;;;;;;;;356261;147;865100;-54
2021/11/25 01:29:36;;;;;;;14.67;9.64;;;;;;;;;;358617;147;866194;-53
2021/11/25 01:30:41;;;;;;;16.84;8.69;;;;;;;;;;360149;147;864959;-53
2021/11/25 01:31:43;;;;;;;13.93;9.42;;;;;;;;;;357384;147;859071;-54
2021/11/25 01:32:44;;;;;;;13.44;8.91;;;;;;;;;;357895;149;857499;-54
2021/11/25 01:33:46;;;;;;;15.11;9.15;;;;;;;;;;358493;150;866726;-53
2021/11/25 01:34:48;;;;;;;13.60;7.57;;;;;;;;;;357439;148;859316;-54
2021/11/25 01:35:49;;;;;;;15.05;8.88;;;;;;;;;;354002;150;865412;-54
2021/11/25 01:36:51;;;;;;;16.11;9.01;;;;;;;;;;356376;150;857374;-54
2021/11/25 01:37:52;;;;;;;15.69;9.07;;;;;;;;;;354937;150;864945;-54
2021/11/25 01:38:54;;;;;;;16.44;9.54;;;;;;;;;;354607;148;865124;-53
2021/11/25 01:39:56;;;;;;;13.87;8.27;;;;;;;;;;355146;151;857306;-54
2021/11/25 01:40:57;;;;;;;14.35;9.68;;;;;;;;;;350273;149;857412;-54
2021/11/25 01:41:59;;;;;;;12.52;8.19;;;;;;;;;;351159;149;865135;-54
2021/11/25 01:43:01;;;;;;;16.48;9.27;;;;;;;;;;355777;149;865046;-55
2021/11/25 01:44:02;;;;;;;13.58;8.13;;;;;;;;;;353589;151;857415;-54
2021/11/25 01:45:04;;;;;;;14.36;8.86;;;;;;;;;;351209;149;857690;-53
2021/11/25 01:46:13;;;;;;;15.68;9.18;;;;;;;;;;351145;149;865876;-55
2021/11/25 01:47:14;;;;;;;14.94;9.52;;;;;;;;;;353019;149;857312;-54
2021/11/25 01:48:16;;;;;;;17.22;9.75;;;;;;;;;;351546;149;859606;-54
2021/11/25 01:49:18;;;;;;;13.92;8.19;;;;;;;;;;355681;149;864915;-54
2021/11/25 01:50:20;;;;;;;15.44;9.33;;;;;;;;;;353636;150;857676;-54
2021/11/25 01:51:22;;;;;;;14.91;9.46;;;;;;;;;;355853;150;857356;-53
2021/11/25 01:52:23;;;;;;;15.89;9.96;;;;;;;;;;356750;150;857266;-54
2021/11/25 01:53:25;;;;;;;15.95;9.61;;;;;;;;;;354993;150;864976;-54
2021/11/25 01:54:26;;;;;;;14.88;9.76;;;;;;;;;;351293;151;865208;-54
2021/11/25 01:55:28;;;;;;;15.76;9.11;;;;;;;;;;355234;149;857537;-54
2021/11/25 01:56:30;;;;;;;15.96;10.04;;;;;;;;;;356219;147;859308;-55
2021/11/25 01:57:31;;;;;;;14.38;9.24;;;;;;;;;;353814;150;865200;-54
2021/11/25 01:58:33;;;;;;;14.70;9.34;;;;;;;;;;357523;150;858381;-55
2021/11/25 01:59:36;;;;;;;17.79;9.17;;;;;;;;;;357069;147;865808;-54
2021/11/25 02:00:39;;;;;;;16.43;10.02;;;;;;;;;;356521;148;865890;-54
2021/11/25 02:01:41;;;;;;;18.16;9.26;;;;;;;;;;357378;148;859094;-54
2021/11/25 02:02:42;;;;;;;14.59;9.75;;;;;;;;;;356847;149;859422;-54
2021/11/25 02:03:45;;;;;;;15.04;10.21;;;;;;;;;;358673;147;859710;-54
2021/11/25 02:04:46;;;;;;;16.19;10.28;;;;;;;;;;357690;147;858228;-54
2021/11/25 02:05:48;;;;;;;14.40;9.11;;;;;;;;;;358743;147;858674;-54
2021/11/25 02:06:49;;;;;;;18.88;11.00;;;;;;;;;;355372;147;858769;-54
2021/11/25 02:07:51;;;;;;;17.42;9.86;;;;;;;;;;354792;150;865097;-54
2021/11/25 02:08:52;;;;;;;15.85;9.60;;;;;;;;;;355239;149;857346;-54
2021/11/25 02:09:54;;;;;;;15.66;9.17;;;;;;;;;;358769;148;864971;-54
2021/11/25 02:10:56;;;;;;;17.46;9.93;;;;;;;;;;355236;147;864785;-54
2021/11/25 02:11:57;;;;;;;16.16;10.51;;;;;;;;;;356802;149;865115;-54
2021/11/25 02:12:59;;;;;;;17.43;10.25;;;;;;;;;;357785;147;865201;-54
2021/11/25 02:14:01;;;;;;;16.31;10.14;;;;;;;;;;352450;148;858609;-55
2021/11/25 02:15:03;;;;;;;19.54;9.01;;;;;;;;;;356467;147;857212;-54
2021/11/25 02:16:04;;;;;;;16.37;9.75;;;;;;;;;;359447;147;858151;-54
2021/11/25 02:17:06;;;;;;;15.58;9.86;;;;;;;;;;353079;150;858580;-55
2021/11/25 02:18:09;;;;;;;17.16;9.96;;;;;;;;;;354141;149;866251;-55
2021/11/25 02:19:10;;;;;;;16.55;9.66;;;;;;;;;;356486;150;860600;-54
2021/11/25 02:20:12;;;;;;;16.45;10.41;;;;;;;;;;351254;150;866818;-54
2021/11/25 02:21:13;;;;;;;15.69;9.54;;;;;;;;;;359384;147;858801;-54
2021/11/25 02:22:15;;;;;;;19.11;10.42;;;;;;;;;;363666;146;866109;-54
2021/11/25 02:23:17;;;;;;;17.73;10.04;;;;;;;;;;359308;147;859872;-54
2021/11/25 02:24:19;;;;;;;18.19;10.13;;;;;;;;;;360448;147;858508;-54
2021/11/25 02:25:20;;;;;;;15.16;8.75;;;;;;;;;;360315;147;857628;-54
2021/11/25 02:26:22;;;;;;;15.06;9.80;;;;;;;;;;364369;147;864829;-54
2021/11/25 02:27:23;;;;;;;15.83;10.25;;;;;;;;;;359420;147;864885;-54
2021/11/25 02:28:26;;;;;;;19.30;9.94;;;;;;;;;;363889;147;860895;-54
2021/11/25 02:29:28;;;;;;;16.24;9.64;;;;;;;;;;358393;149;864423;-54
2021/11/25 02:30:30;;;;;;;13.91;9.21;;;;;;;;;;357990;147;857329;-54
2021/11/25 02:31:31;;;;;;;19.60;10.74;;;;;;;;;;361202;147;865019;-54
2021/11/25 02:32:38;;;;;;;15.79;9.93;;;;;;;;;;360005;149;864601;-55
2021/11/25 02:33:40;;;;;;;17.53;9.63;;;;;;;;;;357885;147;859350;-54
2021/11/25 02:34:42;;;;;;;14.12;9.15;;;;;;;;;;361191;147;858348;-54
2021/11/25 02:35:43;;;;;;;16.21;9.66;;;;;;;;;;360821;147;857253;-54
2021/11/25 02:36:45;;;;;;;18.22;11.12;;;;;;;;;;360397;147;857331;-54
2021/11/25 02:37:47;;;;;;;18.65;10.54;;;;;;;;;;360142;146;865589;-54
2021/11/25 02:38:48;;;;;;;16.90;10.12;;;;;;;;;;361329;146;864921;-54
2021/11/25 02:39:50;;;;;;;15.64;9.95;;;;;;;;;;361442;146;857163;-53
2021/11/25 02:40:55;;;;;;;16.85;9.96;;;;;;;;;;362297;146;857184;-54
2021/11/25 02:41:56;;;;;;;17.41;9.95;;;;;;;;;;360809;146;858848;-54
2021/11/25 02:42:59;;;;;;;17.14;9.86;;;;;;;;;;361641;147;857661;-54
2021/11/25 02:44:00;;;;;;;17.00;9.85;;;;;;;;;;359698;147;866871;-55
2021/11/25 02:45:02;;;;;;;14.14;8.81;;;;;;;;;;360927;147;857176;-52
2021/11/25 02:46:08;;;;;;;17.16;9.98;;;;;;;;;;361491;147;857738;-54
2021/11/25 02:47:09;;;;;;;16.26;10.88;;;;;;;;;;360016;146;865601;-56
2021/11/25 02:48:12;;;;;;;18.05;9.79;;;;;;;;;;359843;148;858902;-57
2021/11/25 02:49:14;;;;;;;16.96;10.53;;;;;;;;;;360086;146;864981;-56
2021/11/25 02:50:17;;;;;;;16.09;10.09;;;;;;;;;;353082;151;857750;-54
2021/11/25 02:51:27;;;;;;;16.36;10.28;;;;;;;;;;352109;151;863941;-54
2021/11/25 02:52:28;;;;;;;18.24;10.13;;;;;;;;;;351071;150;860099;-54
2021/11/25 02:53:30;;;;;;;16.41;10.02;;;;;;;;;;350063;150;859447;-54
2021/11/25 02:54:32;;;;;;;19.02;10.31;;;;;;;;;;336468;154;865181;-55
2021/11/25 02:55:34;;;;;;;17.81;10.16;;;;;;;;;;348953;152;859282;-54
2021/11/25 02:56:35;;;;;;;18.96;11.62;;;;;;;;;;352818;149;865841;-54
2021/11/25 02:57:37;;;;;;;16.12;10.22;;;;;;;;;;343628;154;864610;-54
2021/11/25 02:58:39;;;;;;;19.41;10.12;;;;;;;;;;346896;153;859925;-53
2021/11/25 02:59:41;;;;;;;18.07;10.83;;;;;;;;;;352656;151;857539;-54
2021/11/25 03:00:45;;;;;;;17.60;10.29;;;;;;;;;;346925;152;865898;-54
2021/11/25 03:01:47;;;;;;;17.05;10.76;;;;;;;;;;346398;153;863221;-54
2021/11/25 03:02:56;;;;;;;17.98;11.31;;;;;;;;;;347208;152;857109;-54
2021/11/25 03:03:58;;;;;;;16.66;10.71;;;;;;;;;;348879;150;866342;-54
2021/11/25 03:05:00;;;;;;;18.03;11.81;;;;;;;;;;352912;149;859119;-54
2021/11/25 03:06:01;;;;;;;18.06;11.13;;;;;;;;;;354054;151;858119;-54
2021/11/25 03:07:03;;;;;;;17.38;10.95;;;;;;;;;;347586;152;857378;-54
2021/11/25 03:08:06;;;;;;;19.61;10.96;;;;;;;;;;342646;154;857600;-54
2021/11/25 03:09:07;;;;;;;17.54;10.87;;;;;;;;;;354071;149;864798;-54
2021/11/25 03:10:09;;;;;;;19.49;11.26;;;;;;;;;;355643;149;857913;-54
2021/11/25 03:11:12;;;;;;;20.39;10.69;;;;;;;;;;354306;149;857387;-54
2021/11/25 03:12:13;;;;;;;15.60;9.75;;;;;;;;;;353899;149;864610;-54
2021/11/25 03:13:16;;;;;;;18.64;11.25;;;;;;;;;;348034;151;866325;-54
2021/11/25 03:14:17;;;;;;;19.12;10.64;;;;;;;;;;346614;151;864326;-54
2021/11/25 03:15:19;;;;;;;20.64;11.49;;;;;;;;;;345107;151;857733;-54
2021/11/25 03:16:21;;;;;;;20.39;11.19;;;;;;;;;;347735;151;857343;-54
2021/11/25 03:17:23;;;;;;;18.67;11.41;;;;;;;;;;349169;151;859668;-53
2021/11/25 03:18:24;;;;;;;18.97;11.57;;;;;;;;;;348436;154;857309;-53
2021/11/25 03:19:26;;;;;;;17.27;11.36;;;;;;;;;;348291;152;859114;-54
2021/11/25 03:20:28;;;;;;;17.69;11.55;;;;;;;;;;349162;151;857516;-53
2021/11/25 03:21:29;;;;;;;19.34;11.41;;;;;;;;;;347602;151;859254;-53
2021/11/25 03:22:31;;;;;;;17.23;10.49;;;;;;;;;;350249;152;857824;-53
2021/11/25 03:23:33;;;;;;;21.69;11.88;;;;;;;;;;347536;148;867077;-54
2021/11/25 03:24:35;;;;;;;19.90;10.13;;;;;;;;;;354867;148;865739;-53
2021/11/25 03:25:36;;;;;;;18.15;10.49;;;;;;;;;;355633;149;857221;-54
2021/11/25 03:26:38;;;;;;;17.09;10.07;;;;;;;;;;349989;151;859245;-54
2021/11/25 03:27:41;;;;;;;18.09;11.24;;;;;;;;;;348454;151;865948;-54
2021/11/25 03:28:46;;;;;;;17.78;11.29;;;;;;;;;;348800;152;857747;-54
2021/11/25 03:29:47;;;;;;;20.37;11.01;;;;;;;;;;352975;148;864508;-54
2021/11/25 03:30:55;;;;;;;20.95;11.84;;;;;;;;;;352882;148;857347;-54
2021/11/25 03:31:57;;;;;;;17.64;10.87;;;;;;;;;;355487;149;864723;-54
2021/11/25 03:32:59;;;;;;;18.07;11.47;;;;;;;;;;355083;149;857397;-53
2021/11/25 03:34:01;;;;;;;17.27;11.36;;;;;;;;;;350469;148;857334;-54
2021/11/25 03:35:02;;;;;;;16.93;10.69;;;;;;;;;;353244;148;859534;-54
2021/11/25 03:36:04;;;;;;;16.29;10.51;;;;;;;;;;351755;150;859494;-54
2021/11/25 03:37:06;;;;;;;18.87;11.19;;;;;;;;;;352558;149;865821;-54
2021/11/25 03:38:07;;;;;;;16.20;9.76;;;;;;;;;;353703;148;860715;-55
2021/11/25 03:39:09;;;;;;;19.46;10.61;;;;;;;;;;350634;151;860643;-54
2021/11/25 03:40:11;;;;;;;18.64;12.03;;;;;;;;;;353199;149;865902;-54
2021/11/25 03:41:13;;;;;;;20.56;11.51;;;;;;;;;;354342;148;858837;-54
2021/11/25 03:42:14;;;;;;;20.65;11.45;;;;;;;;;;355318;150;860800;-54
2021/11/25 03:43:16;;;;;;;20.13;11.24;;;;;;;;;;355998;151;857055;-54
2021/11/25 03:44:17;;;;;;;17.69;11.63;;;;;;;;;;353341;148;857649;-54
2021/11/25 03:45:19;;;;;;;22.81;10.41;;;;;;;;;;353178;148;864662;-56
2021/11/25 03:46:20;;;;;;;22.11;11.52;;;;;;;;;;352811;148;857482;-54
2021/11/25 03:47:22;;;;;;;20.41;11.91;;;;;;;;;;354884;149;865673;-54
2021/11/25 03:48:28;;;;;;;16.32;8.51;;;;;;;;;;352170;148;857325;-54
2021/11/25 03:49:27;;;;;;;18.06;10.16;;;;;;;;;;352083;148;864986;-54
2021/11/25 03:50:29;;;;;;;20.16;11.71;;;;;;;;;;344665;152;857800;-54
2021/11/25 03:51:30;;;;;;;20.15;11.59;;;;;;;;;;348741;151;864855;-54
2021/11/25 03:52:32;;;;;;;18.18;11.39;;;;;;;;;;353415;149;865309;-55
2021/11/25 03:53:34;;;;;;;17.74;11.11;;;;;;;;;;355465;151;865992;-55
2021/11/25 03:54:36;;;;;;;17.65;10.63;;;;;;;;;;353392;149;860037;-54
2021/11/25 03:55:37;;;;;;;18.53;11.42;;;;;;;;;;352158;149;857746;-54
2021/11/25 03:56:39;;;;;;;18.84;12.24;;;;;;;;;;351904;151;866042;-54
2021/11/25 03:57:42;;;;;;;21.29;11.57;;;;;;;;;;355303;149;865937;-55
2021/11/25 03:58:44;;;;;;;17.49;11.09;;;;;;;;;;351411;150;865664;-54
2021/11/25 03:59:46;;;;;;;20.95;10.96;;;;;;;;;;354005;151;859738;-55
2021/11/25 04:00:48;;;;;;;17.19;9.73;;;;;;;;;;352479;150;864789;-54
2021/11/25 04:01:50;;;;;;;17.74;10.99;;;;;;;;;;352353;149;857404;-54
2021/11/25 04:02:51;;;;;;;18.51;11.29;;;;;;;;;;350534;149;858204;-55
2021/11/25 04:03:53;;;;;;;18.52;11.01;;;;;;;;;;352666;151;860768;-54
2021/11/25 04:04:54;;;;;;;17.12;9.84;;;;;;;;;;352843;149;865905;-54
2021/11/25 04:05:56;;;;;;;18.10;11.91;;;;;;;;;;351327;150;866049;-54
2021/11/25 04:06:58;;;;;;;18.95;9.94;;;;;;;;;;352490;150;861121;-54
2021/11/25 04:07:59;;;;;;;17.75;11.39;;;;;;;;;;354115;149;865083;-53
2021/11/25 04:09:01;;;;;;;17.55;10.84;;;;;;;;;;351672;149;865035;-54
2021/11/25 04:10:03;;;;;;;18.39;11.16;;;;;;;;;;351993;149;866852;-53
2021/11/25 04:11:06;;;;;;;18.31;11.36;;;;;;;;;;353901;151;858227;-54
2021/11/25 04:12:08;;;;;;;20.42;12.28;;;;;;;;;;345028;151;858773;-54
2021/11/25 04:13:10;;;;;;;17.94;11.19;;;;;;;;;;354487;149;857336;-54
2021/11/25 04:14:12;;;;;;;19.03;11.15;;;;;;;;;;355125;151;858069;-53
2021/11/25 04:15:14;;;;;;;17.01;10.26;;;;;;;;;;353722;150;858916;-53
2021/11/25 04:16:15;;;;;;;18.96;10.63;;;;;;;;;;353029;150;858543;-54
2021/11/25 04:17:21;;;;;;;17.56;10.65;;;;;;;;;;355240;149;858906;-53
2021/11/25 04:18:20;;;;;;;20.63;11.91;;;;;;;;;;355597;149;859064;-54
2021/11/25 04:19:22;;;;;;;19.77;12.05;;;;;;;;;;350976;149;857117;-53
2021/11/25 04:20:24;;;;;;;20.13;11.39;;;;;;;;;;353285;149;865665;-57
2021/11/25 04:21:25;;;;;;;18.95;11.34;;;;;;;;;;345436;152;857897;-56
2021/11/25 04:22:27;;;;;;;18.24;11.76;;;;;;;;;;352386;149;866560;-52
2021/11/25 04:23:29;;;;;;;20.85;11.13;;;;;;;;;;346106;151;865710;-53
2021/11/25 04:24:31;;;;;;;19.36;11.72;;;;;;;;;;342096;156;857248;-52
2021/11/25 04:25:34;;;;;;;18.82;11.34;;;;;;;;;;341894;152;866122;-59
2021/11/25 04:26:36;;;;;;;23.32;11.07;;;;;;;;;;344722;153;865067;-59
2021/11/25 04:27:37;;;;;;;18.53;11.46;;;;;;;;;;349185;152;856987;-56
2021/11/25 04:28:39;;;;;;;19.91;11.49;;;;;;;;;;346877;153;865012;-56
2021/11/25 04:29:43;;;;;;;20.39;10.34;;;;;;;;;;348989;150;864709;-57
2021/11/25 04:35:46;;;;;;;25.45;12.78;;;;;;;;;;347576;153;857207;-55
2021/11/25 04:36:47;;;;;;;23.75;12.68;;;;;;;;;;347154;151;857358;-54
2021/11/25 04:37:49;;;;;;;19.28;12.63;;;;;;;;;;347558;153;864845;-53
2021/11/25 04:38:52;;;;;;;21.11;12.53;;;;;;;;;;343648;154;867535;-55
2021/11/25 04:39:54;;;;;;;20.21;11.24;;;;;;;;;;344538;152;864722;-54
2021/11/25 04:40:59;;;;;;;21.36;11.74;;;;;;;;;;347727;153;857804;-54
2021/11/25 04:42:00;;;;;;;19.36;11.50;;;;;;;;;;347741;154;867055;-54
2021/11/25 04:43:03;;;;;;;20.21;11.71;;;;;;;;;;347967;153;857202;-54
2021/11/25 04:44:04;;;;;;;21.42;11.73;;;;;;;;;;348143;151;864794;-53
2021/11/25 04:45:06;;;;;;;20.60;11.21;;;;;;;;;;348581;154;858770;-56
2021/11/25 04:46:09;;;;;;;19.62;12.14;;;;;;;;;;343529;154;865285;-55
2021/11/25 04:47:13;;;;;;;18.66;11.73;;;;;;;;;;346798;153;858921;-54
2021/11/25 04:48:15;;;;;;;22.09;12.67;;;;;;;;;;345591;153;866724;-54
2021/11/25 04:49:16;;;;;;;20.93;12.19;;;;;;;;;;345890;152;857319;-55
2021/11/25 04:50:20;;;;;;;20.45;12.23;;;;;;;;;;347634;152;859148;-55
2021/11/25 04:51:22;;;;;;;19.06;12.38;;;;;;;;;;346443;154;857116;-55
2021/11/25 04:52:23;;;;;;;18.58;11.84;;;;;;;;;;346001;152;859329;-55
2021/11/25 04:53:25;;;;;;;19.36;11.33;;;;;;;;;;345763;152;864852;-55
2021/11/25 04:54:27;;;;;;;18.31;11.05;;;;;;;;;;348028;152;864938;-55
2021/11/25 04:55:29;;;;;;;21.39;11.48;;;;;;;;;;349297;151;857765;-55
2021/11/25 04:56:31;;;;;;;19.55;11.87;;;;;;;;;;348146;153;866611;-55
2021/11/25 04:57:32;;;;;;;22.17;12.15;;;;;;;;;;348871;152;857686;-56
2021/11/25 04:58:34;;;;;;;20.94;13.02;;;;;;;;;;349732;151;864882;-56
2021/11/25 04:59:35;;;;;;;19.34;11.02;;;;;;;;;;348286;152;865793;-57
2021/11/25 05:00:37;;;;;;;19.39;12.47;;;;;;;;;;348834;150;864718;-55
2021/11/25 05:01:39;;;;;;;21.09;12.39;;;;;;;;;;347546;152;861124;-56
2021/11/25 05:02:41;;;;;;;19.93;11.52;;;;;;;;;;349063;152;864932;-55
2021/11/25 05:03:42;;;;;;;20.10;12.36;;;;;;;;;;342162;154;864910;-55
2021/11/25 05:04:44;;;;;;;20.05;11.91;;;;;;;;;;343843;153;864911;-56
2021/11/25 05:05:46;;;;;;;20.61;13.32;;;;;;;;;;346143;152;865694;-55
2021/11/25 05:06:48;;;;;;;24.34;13.46;;;;;;;;;;346825;151;864963;-56
2021/11/25 05:07:49;;;;;;;21.10;12.16;;;;;;;;;;345208;154;857251;-57
2021/11/25 05:08:51;;;;;;;18.80;11.35;;;;;;;;;;347587;152;859536;-56
2021/11/25 05:09:53;;;;;;;20.86;11.51;;;;;;;;;;347431;153;864766;-58
2021/11/25 05:10:54;;;;;;;20.71;11.64;;;;;;;;;;348491;153;865103;-55
2021/11/25 05:11:56;;;;;;;21.92;12.22;;;;;;;;;;344352;152;858393;-54
2021/11/25 05:12:58;;;;;;;17.66;10.97;;;;;;;;;;348884;152;866691;-56
2021/11/25 05:13:59;;;;;;;19.26;11.51;;;;;;;;;;348402;151;866563;-59
2021/11/25 05:15:01;;;;;;;17.97;11.21;;;;;;;;;;346879;153;857625;-56
2021/11/25 05:16:03;;;;;;;18.79;11.44;;;;;;;;;;345370;152;864641;-57
2021/11/25 05:17:05;;;;;;;20.39;12.37;;;;;;;;;;347606;151;864865;-58
2021/11/25 05:18:07;;;;;;;22.08;11.64;;;;;;;;;;346536;154;857328;-57
2021/11/25 05:19:09;;;;;;;27.47;12.05;;;;;;;;;;344808;152;866408;-58
2021/11/25 05:20:12;;;;;;;20.54;12.29;;;;;;;;;;344467;153;857220;-59
2021/11/25 05:21:14;;;;;;;22.41;11.54;;;;;;;;;;345597;151;858999;-59
2021/11/25 05:22:16;;;;;;;21.39;12.41;;;;;;;;;;344513;151;859655;-55
2021/11/25 05:23:17;;;;;;;21.84;12.37;;;;;;;;;;345234;153;857331;-56
2021/11/25 05:24:19;;;;;;;22.20;12.16;;;;;;;;;;346498;152;865156;-57
2021/11/25 05:25:21;;;;;;;23.78;12.29;;;;;;;;;;342978;155;864911;-55
2021/11/25 05:26:23;;;;;;;22.63;12.89;;;;;;;;;;340019;154;866121;-55
2021/11/25 05:27:24;;;;;;;22.29;12.65;;;;;;;;;;349774;152;857169;-54
2021/11/25 05:28:26;;;;;;;20.69;12.24;;;;;;;;;;348786;150;866385;-55
2021/11/25 05:29:28;;;;;;;20.88;12.34;;;;;;;;;;347619;150;866729;-54
2021/11/25 05:30:31;;;;;;;21.41;12.63;;;;;;;;;;349806;150;859600;-55
2021/11/25 05:31:33;;;;;;;20.01;11.82;;;;;;;;;;350128;152;857258;-56
2021/11/25 05:32:35;;;;;;;19.39;12.16;;;;;;;;;;347811;152;865388;-56
2021/11/25 05:33:38;;;;;;;20.06;11.64;;;;;;;;;;349937;152;865074;-53
2021/11/25 05:34:39;;;;;;;22.71;11.47;;;;;;;;;;344387;153;866605;-54
2021/11/25 05:35:41;;;;;;;18.53;11.07;;;;;;;;;;339300;156;858608;-55
2021/11/25 05:36:43;;;;;;;20.49;11.16;;;;;;;;;;341729;152;864732;-56
2021/11/25 05:37:45;;;;;;;17.27;11.43;;;;;;;;;;348159;151;859527;-55
2021/11/25 05:38:47;;;;;;;18.97;11.04;;;;;;;;;;347336;152;857106;-55
2021/11/25 05:39:48;;;;;;;19.99;11.07;;;;;;;;;;352307;151;865617;-55
2021/11/25 05:40:50;;;;;;;16.28;10.29;;;;;;;;;;348314;152;864845;-54
2021/11/25 05:41:52;;;;;;;17.47;10.73;;;;;;;;;;343798;154;859335;-54
2021/11/25 05:42:54;;;;;;;19.96;10.77;;;;;;;;;;351941;152;857604;-53
2021/11/25 05:43:55;;;;;;;18.94;11.48;;;;;;;;;;352585;150;865244;-54
2021/11/25 05:44:58;;;;;;;19.42;11.19;;;;;;;;;;346665;153;864599;-54
2021/11/25 05:45:59;;;;;;;21.37;12.28;;;;;;;;;;346912;152;860180;-54
2021/11/25 05:47:01;;;;;;;23.04;12.18;;;;;;;;;;350924;150;857794;-55
2021/11/25 05:48:03;;;;;;;22.90;11.97;;;;;;;;;;349461;150;867036;-54
2021/11/25 05:49:05;;;;;;;18.38;11.95;;;;;;;;;;350144;151;866616;-54
2021/11/25 05:50:09;;;;;;;22.61;11.42;;;;;;;;;;348277;151;856020;-54
2021/11/25 05:51:11;;;;;;;17.71;11.50;;;;;;;;;;350278;150;859344;-55
2021/11/25 05:52:12;;;;;;;21.03;11.70;;;;;;;;;;350418;151;864588;-55
2021/11/25 05:53:18;;;;;;;21.32;10.64;;;;;;;;;;349868;152;865461;-55
2021/11/25 05:54:17;;;;;;;18.47;11.31;;;;;;;;;;348701;152;857231;-56
2021/11/25 05:55:19;;;;;;;22.94;12.67;;;;;;;;;;350119;150;857220;-56
2021/11/25 05:56:22;;;;;;;19.49;11.67;;;;;;;;;;350294;151;865057;-55
2021/11/25 05:57:24;;;;;;;22.54;11.77;;;;;;;;;;350312;152;857127;-55
2021/11/25 05:58:27;;;;;;;19.24;11.02;;;;;;;;;;349122;152;864728;-55
2021/11/25 05:59:30;;;;;;;21.61;12.11;;;;;;;;;;349867;152;867129;-55
2021/11/25 06:00:32;;;;;;;17.84;11.15;;;;;;;;;;350876;152;858975;-55
2021/11/25 06:01:34;;;;;;;20.99;12.06;;;;;;;;;;349780;150;857272;-55